createdAt,value
2023-02-05T00:00:49.123Z,16
2023-02-05T00:01:48.336Z,16
2023-02-05T00:02:49.130Z,16
2023-02-05T00:03:49.139Z,16
2023-02-05T00:04:48.283Z,16
2023-02-05T00:05:48.295Z,16
2023-02-05T00:06:48.280Z,16
2023-02-05T00:07:48.265Z,16
2023-02-05T00:08:48.243Z,16
2023-02-05T00:09:48.266Z,16
2023-02-05T00:10:48.205Z,16
2023-02-05T00:11:48.269Z,16
2023-02-05T00:12:48.260Z,16
2023-02-05T00:13:48.191Z,16
2023-02-05T00:14:48.204Z,16
2023-02-05T00:15:48.147Z,16
2023-02-05T00:16:48.142Z,16
2023-02-05T00:17:48.128Z,16
2023-02-05T00:18:48.117Z,16
2023-02-05T00:19:48.109Z,16
2023-02-05T00:20:48.097Z,16
2023-02-05T00:21:48.090Z,16
2023-02-05T00:22:48.080Z,16
2023-02-05T00:23:48.070Z,16
2023-02-05T00:24:48.059Z,16
2023-02-05T00:25:48.052Z,16
2023-02-05T00:26:48.058Z,16
2023-02-05T00:27:48.029Z,16
2023-02-05T00:28:48.019Z,16
2023-02-05T00:29:48.003Z,16
2023-02-05T00:30:48.014Z,16
2023-02-05T00:31:47.999Z,16
2023-02-05T00:32:47.999Z,16
2023-02-05T00:33:47.975Z,16
2023-02-05T00:34:48.025Z,16
2023-02-05T00:35:47.959Z,16
2023-02-05T00:36:47.936Z,16
2023-02-05T00:37:47.934Z,16
2023-02-05T00:38:47.925Z,16
2023-02-05T00:39:47.906Z,16
2023-02-05T00:40:47.895Z,16
2023-02-05T00:41:47.893Z,16
2023-02-05T00:42:47.884Z,16
2023-02-05T00:43:47.868Z,16
2023-02-05T00:44:47.854Z,16
2023-02-05T00:45:47.846Z,16
2023-02-05T00:46:47.834Z,16
2023-02-05T00:47:47.825Z,16
2023-02-05T00:48:47.818Z,16
2023-02-05T00:49:47.805Z,16
2023-02-05T00:50:47.795Z,16
2023-02-05T00:51:47.779Z,16
2023-02-05T00:52:47.770Z,16
2023-02-05T00:53:47.768Z,16
2023-02-05T00:54:47.754Z,16
2023-02-05T00:55:47.740Z,16
2023-02-05T00:56:47.730Z,16
2023-02-05T00:57:47.729Z,16
2023-02-05T00:58:47.710Z,16
2023-02-05T00:59:47.705Z,16
2023-02-05T01:00:47.708Z,16
2023-02-05T01:01:47.682Z,16
2023-02-05T01:02:47.675Z,16
2023-02-05T01:03:47.662Z,16
2023-02-05T01:04:47.649Z,16
2023-02-05T01:05:47.642Z,16
2023-02-05T01:06:47.634Z,16
2023-02-05T01:07:47.630Z,16
2023-02-05T01:08:47.611Z,16
2023-02-05T01:09:47.602Z,16
2023-02-05T01:10:47.631Z,16
2023-02-05T01:11:47.581Z,16
2023-02-05T01:12:47.575Z,16
2023-02-05T01:13:47.561Z,16
2023-02-05T01:14:47.552Z,16
2023-02-05T01:15:47.539Z,16
2023-02-05T01:16:47.531Z,16
2023-02-05T01:17:47.523Z,16
2023-02-05T01:18:47.507Z,16
2023-02-05T01:19:47.504Z,16
2023-02-05T01:20:47.486Z,16
2023-02-05T01:21:47.480Z,16
2023-02-05T01:22:47.469Z,16
2023-02-05T01:23:47.455Z,16
2023-02-05T01:24:47.452Z,16
2023-02-05T01:25:47.444Z,16
2023-02-05T01:26:47.430Z,16
2023-02-05T01:27:47.416Z,16
2023-02-05T01:28:47.407Z,16
2023-02-05T01:29:47.400Z,16
2023-02-05T01:30:47.387Z,16
2023-02-05T01:31:47.377Z,16
2023-02-05T01:32:47.364Z,16
2023-02-05T01:33:47.359Z,16
2023-02-05T01:34:47.347Z,16
2023-02-05T01:35:47.336Z,16
2023-02-05T01:36:47.327Z,16
2023-02-05T01:37:47.315Z,16
2023-02-05T01:38:47.311Z,16
2023-02-05T01:39:47.304Z,16
2023-02-05T01:40:47.307Z,16
2023-02-05T01:41:47.277Z,16
2023-02-05T01:42:47.262Z,16
2023-02-05T01:43:47.266Z,16
2023-02-05T01:44:47.241Z,16
2023-02-05T01:45:47.255Z,16
2023-02-05T01:46:47.237Z,16
2023-02-05T01:47:47.212Z,16
2023-02-05T01:48:47.201Z,16
2023-02-05T01:49:47.195Z,16
2023-02-05T01:50:47.190Z,16
2023-02-05T01:51:47.179Z,16
2023-02-05T01:52:47.174Z,16
2023-02-05T01:53:47.150Z,16
2023-02-05T01:54:47.138Z,16
2023-02-05T01:55:47.137Z,16
2023-02-05T01:56:47.129Z,16
2023-02-05T01:57:47.109Z,16
2023-02-05T01:58:47.100Z,16
2023-02-05T01:59:47.088Z,16
2023-02-05T02:00:47.082Z,16
2023-02-05T02:01:47.072Z,16
2023-02-05T02:02:47.068Z,16
2023-02-05T02:03:47.047Z,16
2023-02-05T02:04:47.037Z,16
2023-02-05T02:05:47.034Z,16
2023-02-05T02:06:47.019Z,16
2023-02-05T02:07:47.006Z,16
2023-02-05T02:08:46.995Z,16
2023-02-05T02:09:46.981Z,16
2023-02-05T02:10:46.971Z,16
2023-02-05T02:11:46.960Z,16
2023-02-05T02:12:46.951Z,16
2023-02-05T02:13:46.945Z,16
2023-02-05T02:14:46.930Z,16
2023-02-05T02:15:46.922Z,16
2023-02-05T02:16:46.907Z,16
2023-02-05T02:17:46.907Z,16
2023-02-05T02:18:46.892Z,16
2023-02-05T02:19:46.879Z,16
2023-02-05T02:20:46.868Z,16
2023-02-05T02:21:46.857Z,16
2023-02-05T02:22:46.847Z,16
2023-02-05T02:23:46.840Z,16
2023-02-05T02:24:46.830Z,16
2023-02-05T02:25:46.821Z,16
2023-02-05T02:26:46.807Z,16
2023-02-05T02:27:46.797Z,16
2023-02-05T02:28:46.789Z,16
2023-02-05T02:29:46.777Z,16
2023-02-05T02:30:46.770Z,16
2023-02-05T02:31:46.778Z,16
2023-02-05T02:32:46.748Z,16
2023-02-05T02:33:46.739Z,16
2023-02-05T02:34:46.722Z,16
2023-02-05T02:35:46.716Z,16
2023-02-05T02:36:46.708Z,16
2023-02-05T02:37:46.694Z,16
2023-02-05T02:38:46.683Z,16
2023-02-05T02:39:46.676Z,16
2023-02-05T02:40:46.666Z,16
2023-02-05T02:41:46.652Z,16
2023-02-05T02:42:46.644Z,16
2023-02-05T02:43:46.633Z,16
2023-02-05T02:44:46.622Z,16
2023-02-05T02:45:46.616Z,16
2023-02-05T02:46:46.607Z,16
2023-02-05T02:47:46.589Z,16
2023-02-05T02:48:46.586Z,16
2023-02-05T02:49:46.570Z,16
2023-02-05T02:50:55.159Z,16
2023-02-05T02:51:46.547Z,16
2023-02-05T02:52:46.537Z,16
2023-02-05T02:53:46.533Z,16
2023-02-05T02:54:46.519Z,16
2023-02-05T02:55:46.513Z,16
2023-02-05T02:56:46.500Z,16
2023-02-05T02:57:46.488Z,16
2023-02-05T02:58:46.476Z,16
2023-02-05T02:59:46.478Z,16
2023-02-05T03:00:46.467Z,16
2023-02-05T03:01:46.463Z,16
2023-02-05T03:02:46.449Z,16
2023-02-05T03:03:46.430Z,16
2023-02-05T03:04:46.419Z,16
2023-02-05T03:05:46.406Z,16
2023-02-05T03:06:46.396Z,16
2023-02-05T03:07:46.390Z,16
2023-02-05T03:08:46.377Z,16
2023-02-05T03:09:46.368Z,16
2023-02-05T03:10:46.354Z,16
2023-02-05T03:11:46.347Z,16
2023-02-05T03:12:46.345Z,16
2023-02-05T03:13:46.329Z,16
2023-02-05T03:14:46.317Z,16
2023-02-05T03:15:46.306Z,16
2023-02-05T03:16:46.296Z,16
2023-02-05T03:17:46.284Z,16
2023-02-05T03:18:46.278Z,16
2023-02-05T03:19:46.265Z,16
2023-02-05T03:20:46.253Z,16
2023-02-05T03:21:46.250Z,16
2023-02-05T03:22:46.239Z,16
2023-02-05T03:23:46.239Z,16
2023-02-05T03:24:46.217Z,16
2023-02-05T03:25:46.207Z,16
2023-02-05T03:26:46.198Z,16
2023-02-05T03:27:46.183Z,16
2023-02-05T03:28:46.195Z,16
2023-02-05T03:29:46.162Z,16
2023-02-05T03:30:46.158Z,16
2023-02-05T03:31:46.144Z,16
2023-02-05T03:32:46.150Z,16
2023-02-05T03:33:46.129Z,16
2023-02-05T03:34:46.120Z,16
2023-02-05T03:35:46.103Z,16
2023-02-05T03:36:46.098Z,16
2023-02-05T03:37:46.086Z,16
2023-02-05T03:38:46.070Z,16
2023-02-05T03:39:46.062Z,16
2023-02-05T03:40:46.078Z,16
2023-02-05T03:41:46.039Z,16
2023-02-05T03:42:46.031Z,16
2023-02-05T03:43:46.022Z,16
2023-02-05T03:44:46.017Z,16
2023-02-05T03:45:46.004Z,16
2023-02-05T03:46:46.002Z,16
2023-02-05T03:47:45.981Z,16
2023-02-05T03:48:45.970Z,16
2023-02-05T03:49:45.971Z,16
2023-02-05T03:50:45.956Z,16
2023-02-05T03:51:45.945Z,16
2023-02-05T03:52:45.932Z,16
2023-02-05T03:53:45.916Z,16
2023-02-05T03:54:45.909Z,16
2023-02-05T03:55:45.908Z,16
2023-02-05T03:56:45.889Z,16
2023-02-05T03:57:45.887Z,16
2023-02-05T03:58:45.867Z,16
2023-02-05T03:59:45.855Z,16
2023-02-05T04:00:45.865Z,16
2023-02-05T04:01:45.839Z,16
2023-02-05T04:02:45.828Z,16
2023-02-05T04:03:45.818Z,16
2023-02-05T04:04:45.813Z,16
2023-02-05T04:05:45.796Z,16
2023-02-05T04:06:45.795Z,16
2023-02-05T04:07:45.777Z,16
2023-02-05T04:08:45.767Z,16
2023-02-05T04:09:45.760Z,16
2023-02-05T04:10:45.759Z,16
2023-02-05T04:11:45.738Z,16
2023-02-05T04:12:45.726Z,16
2023-02-05T04:13:45.724Z,16
2023-02-05T04:14:45.711Z,16
2023-02-05T04:15:45.702Z,16
2023-02-05T04:16:45.688Z,16
2023-02-05T04:17:45.678Z,16
2023-02-05T04:18:45.664Z,16
2023-02-05T04:19:45.657Z,16
2023-02-05T04:20:45.644Z,16
2023-02-05T04:21:45.634Z,16
2023-02-05T04:22:45.633Z,16
2023-02-05T04:23:45.613Z,16
2023-02-05T04:24:45.608Z,16
2023-02-05T04:25:45.592Z,16
2023-02-05T04:26:45.585Z,16
2023-02-05T04:27:45.573Z,16
2023-02-05T04:28:45.565Z,16
2023-02-05T04:29:45.557Z,16
2023-02-05T04:30:45.556Z,16
2023-02-05T04:31:45.535Z,16
2023-02-05T04:32:45.522Z,16
2023-02-05T04:33:45.518Z,16
2023-02-05T04:34:45.504Z,16
2023-02-05T04:35:45.495Z,16
2023-02-05T04:36:45.480Z,16
2023-02-05T04:37:45.472Z,16
2023-02-05T04:38:45.461Z,16
2023-02-05T04:39:45.458Z,16
2023-02-05T04:40:45.440Z,16
2023-02-05T04:41:45.432Z,16
2023-02-05T04:42:45.421Z,16
2023-02-05T04:43:45.411Z,12
2023-02-05T04:44:45.402Z,12
2023-02-05T04:45:45.389Z,12
2023-02-05T04:46:45.384Z,12
2023-02-05T04:47:45.369Z,12
2023-02-05T04:48:45.363Z,12
2023-02-05T04:49:45.348Z,12
2023-02-05T04:50:45.337Z,12
2023-02-05T04:51:45.332Z,12
2023-02-05T04:52:45.320Z,12
2023-02-05T04:53:45.311Z,12
2023-02-05T04:54:45.303Z,12
2023-02-05T04:55:45.289Z,12
2023-02-05T04:56:45.274Z,12
2023-02-05T04:57:45.266Z,12
2023-02-05T04:58:45.258Z,12
2023-02-05T04:59:45.242Z,12
2023-02-05T05:00:45.242Z,12
2023-02-05T05:01:45.225Z,12
2023-02-05T05:02:45.212Z,12
2023-02-05T05:03:45.203Z,12
2023-02-05T05:04:45.195Z,12
2023-02-05T05:05:45.183Z,12
2023-02-05T05:06:45.172Z,12
2023-02-05T05:07:45.165Z,12
2023-02-05T05:08:45.155Z,12
2023-02-05T05:09:45.147Z,12
2023-02-05T05:10:45.146Z,12
2023-02-05T05:11:45.131Z,12
2023-02-05T05:12:45.114Z,12
2023-02-05T05:13:45.098Z,12
2023-02-05T05:14:45.089Z,12
2023-02-05T05:15:45.083Z,12
2023-02-05T05:16:45.078Z,12
2023-02-05T05:17:45.057Z,12
2023-02-05T05:18:45.055Z,12
2023-02-05T05:19:45.044Z,12
2023-02-05T05:20:45.028Z,12
2023-02-05T05:21:45.018Z,12
2023-02-05T05:22:45.010Z,12
2023-02-05T05:23:44.993Z,12
2023-02-05T05:24:44.988Z,12
2023-02-05T05:25:44.974Z,12
2023-02-05T05:26:44.968Z,12
2023-02-05T05:27:44.952Z,12
2023-02-05T05:28:44.942Z,12
2023-02-05T05:29:44.944Z,12
2023-02-05T05:30:44.933Z,12
2023-02-05T05:31:44.912Z,12
2023-02-05T05:32:44.906Z,12
2023-02-05T05:33:44.895Z,12
2023-02-05T05:34:44.882Z,12
2023-02-05T05:35:44.880Z,12
2023-02-05T05:36:44.870Z,12
2023-02-05T05:37:44.853Z,12
2023-02-05T05:38:44.841Z,12
2023-02-05T05:39:44.840Z,12
2023-02-05T05:40:44.827Z,12
2023-02-05T05:41:44.812Z,12
2023-02-05T05:42:44.804Z,12
2023-02-05T05:43:44.787Z,12
2023-02-05T05:44:44.778Z,12
2023-02-05T05:45:44.773Z,12
2023-02-05T05:46:44.756Z,12
2023-02-05T05:47:44.748Z,12
2023-02-05T05:48:44.741Z,12
2023-02-05T05:49:44.729Z,12
2023-02-05T05:50:44.719Z,12
2023-02-05T05:51:44.726Z,12
2023-02-05T05:52:44.694Z,12
2023-02-05T05:53:52.251Z,12
2023-02-05T05:54:52.247Z,12
2023-02-05T05:55:44.669Z,12
2023-02-05T05:56:53.239Z,12
2023-02-05T05:57:53.231Z,12
2023-02-05T05:58:52.233Z,12
2023-02-05T05:59:52.191Z,12
2023-02-05T06:00:52.235Z,16
2023-02-05T06:01:52.171Z,16
2023-02-05T06:02:44.595Z,16
2023-02-05T06:03:52.160Z,16
2023-02-05T06:04:44.571Z,16
2023-02-05T06:05:44.567Z,16
2023-02-05T06:06:44.555Z,16
2023-02-05T06:07:44.545Z,16
2023-02-05T06:08:44.536Z,16
2023-02-05T06:09:44.526Z,16
2023-02-05T06:10:44.516Z,16
2023-02-05T06:11:44.508Z,16
2023-02-05T06:12:44.491Z,16
2023-02-05T06:13:44.485Z,16
2023-02-05T06:14:44.475Z,16
2023-02-05T06:15:44.461Z,16
2023-02-05T06:16:53.039Z,16
2023-02-05T06:17:52.002Z,16
2023-02-05T06:18:52.004Z,16
2023-02-05T06:19:51.981Z,16
2023-02-05T06:20:44.415Z,16
2023-02-05T06:21:44.398Z,16
2023-02-05T06:22:51.957Z,16
2023-02-05T06:23:44.397Z,16
2023-02-05T06:24:44.377Z,16
2023-02-05T06:25:44.364Z,16
2023-02-05T06:26:44.346Z,16
2023-02-05T06:27:52.930Z,16
2023-02-05T06:28:44.329Z,16
2023-02-05T06:29:44.316Z,16
2023-02-05T06:30:44.309Z,16
2023-02-05T06:31:44.294Z,16
2023-02-05T06:32:44.285Z,16
2023-02-05T06:33:44.283Z,16
2023-02-05T06:34:44.267Z,16
2023-02-05T06:35:44.262Z,16
2023-02-05T06:36:44.244Z,16
2023-02-05T06:37:44.241Z,16
2023-02-05T06:38:44.221Z,16
2023-02-05T06:39:44.211Z,16
2023-02-05T06:40:44.214Z,16
2023-02-05T06:41:44.200Z,16
2023-02-05T06:42:44.186Z,12
2023-02-05T06:43:44.179Z,16
2023-02-05T06:44:44.167Z,16
2023-02-05T06:45:44.153Z,16
2023-02-05T06:46:44.160Z,16
2023-02-05T06:47:44.131Z,16
2023-02-05T06:48:44.121Z,16
2023-02-05T06:49:44.114Z,20
2023-02-05T06:50:44.106Z,20
2023-02-05T06:51:44.092Z,16
2023-02-05T06:52:44.087Z,20
2023-02-05T06:53:44.074Z,16
2023-02-05T06:54:44.063Z,8
2023-02-05T06:55:44.052Z,8
2023-02-05T06:56:44.043Z,8
2023-02-05T06:57:44.030Z,8
2023-02-05T06:58:44.020Z,8
2023-02-05T06:59:44.010Z,8
2023-02-05T07:00:44.036Z,8
2023-02-05T07:01:43.990Z,12
2023-02-05T07:02:43.984Z,12
2023-02-05T07:03:43.975Z,12
2023-02-05T07:04:43.968Z,12
2023-02-05T07:05:43.949Z,16
2023-02-05T07:06:43.939Z,16
2023-02-05T07:07:43.936Z,20
2023-02-05T07:08:43.920Z,24
2023-02-05T07:09:43.912Z,24
2023-02-05T07:10:43.914Z,28
2023-02-05T07:11:43.897Z,32
2023-02-05T07:12:43.880Z,32
2023-02-05T07:13:43.871Z,36
2023-02-05T07:14:43.858Z,36
2023-02-05T07:15:43.850Z,44
2023-02-05T07:16:43.842Z,48
2023-02-05T07:17:43.830Z,52
2023-02-05T07:18:43.828Z,56
2023-02-05T07:19:43.810Z,60
2023-02-05T07:20:43.822Z,60
2023-02-05T07:21:43.795Z,60
2023-02-05T07:22:43.814Z,60
2023-02-05T07:23:43.774Z,64
2023-02-05T07:24:43.760Z,76
2023-02-05T07:25:43.756Z,80
2023-02-05T07:26:43.736Z,96
2023-02-05T07:27:43.731Z,104
2023-02-05T07:28:43.712Z,108
2023-02-05T07:29:43.713Z,108
2023-02-05T07:30:43.699Z,104
2023-02-05T07:31:44.619Z,104
2023-02-05T07:32:43.674Z,108
2023-02-05T07:33:43.661Z,112
2023-02-05T07:34:43.654Z,120
2023-02-05T07:35:43.650Z,120
2023-02-05T07:36:43.636Z,124
2023-02-05T07:37:43.625Z,124
2023-02-05T07:38:43.630Z,132
2023-02-05T07:39:43.602Z,132
2023-02-05T07:40:43.593Z,136
2023-02-05T07:41:43.586Z,144
2023-02-05T07:42:43.581Z,144
2023-02-05T07:43:43.558Z,144
2023-02-05T07:44:43.553Z,152
2023-02-05T07:45:43.541Z,160
2023-02-05T07:46:43.531Z,160
2023-02-05T07:47:43.525Z,160
2023-02-05T07:48:43.511Z,164
2023-02-05T07:49:43.502Z,164
2023-02-05T07:50:43.489Z,160
2023-02-05T07:51:43.485Z,164
2023-02-05T07:52:43.467Z,164
2023-02-05T07:53:43.459Z,160
2023-02-05T07:54:43.460Z,156
2023-02-05T07:55:43.437Z,148
2023-02-05T07:56:43.434Z,152
2023-02-05T07:57:43.428Z,160
2023-02-05T07:58:43.407Z,176
2023-02-05T07:59:43.396Z,204
2023-02-05T08:00:43.386Z,220
2023-02-05T08:01:43.374Z,240
2023-02-05T08:02:43.363Z,256
2023-02-05T08:03:43.355Z,284
2023-02-05T08:04:43.352Z,316
2023-02-05T08:05:43.335Z,332
2023-02-05T08:06:43.329Z,356
2023-02-05T08:07:43.313Z,372
2023-02-05T08:08:43.301Z,376
2023-02-05T08:09:43.293Z,356
2023-02-05T08:10:43.280Z,328
2023-02-05T08:11:43.272Z,332
2023-02-05T08:12:43.266Z,320
2023-02-05T08:13:43.252Z,280
2023-02-05T08:14:43.242Z,276
2023-02-05T08:15:43.229Z,308
2023-02-05T08:16:43.225Z,320
2023-02-05T08:17:43.209Z,312
2023-02-05T08:18:43.204Z,348
2023-02-05T08:19:43.193Z,364
2023-02-05T08:20:43.185Z,364
2023-02-05T08:21:43.174Z,420
2023-02-05T08:22:43.170Z,452
2023-02-05T08:23:43.165Z,460
2023-02-05T08:24:43.146Z,460
2023-02-05T08:25:43.126Z,484
2023-02-05T08:26:43.124Z,516
2023-02-05T08:27:43.114Z,516
2023-02-05T08:28:43.110Z,476
2023-02-05T08:29:43.086Z,396
2023-02-05T08:30:43.076Z,368
2023-02-05T08:31:43.078Z,408
2023-02-05T08:32:43.057Z,460
2023-02-05T08:33:43.049Z,568
2023-02-05T08:34:43.038Z,692
2023-02-05T08:35:43.024Z,728
2023-02-05T08:36:43.041Z,756
2023-02-05T08:37:43.019Z,780
2023-02-05T08:38:43.001Z,832
2023-02-05T08:39:42.987Z,876
2023-02-05T08:40:42.981Z,888
2023-02-05T08:41:42.973Z,912
2023-02-05T08:42:42.953Z,912
2023-02-05T08:43:42.950Z,916
2023-02-05T08:44:42.947Z,924
2023-02-05T08:45:42.922Z,932
2023-02-05T08:46:42.914Z,948
2023-02-05T08:47:42.906Z,968
2023-02-05T08:48:42.895Z,984
2023-02-05T08:49:42.885Z,992
2023-02-05T08:50:42.873Z,984
2023-02-05T08:51:42.864Z,972
2023-02-05T08:52:42.856Z,952
2023-02-05T08:53:42.845Z,936
2023-02-05T08:54:42.844Z,920
2023-02-05T08:55:42.820Z,912
2023-02-05T08:56:42.822Z,912
2023-02-05T08:57:42.807Z,920
2023-02-05T08:58:42.792Z,928
2023-02-05T08:59:42.789Z,952
2023-02-05T09:00:42.780Z,980
2023-02-05T09:01:42.763Z,1004
2023-02-05T09:02:42.764Z,1024
2023-02-05T09:03:42.754Z,1052
2023-02-05T09:04:42.730Z,1084
2023-02-05T09:05:42.721Z,1120
2023-02-05T09:06:42.719Z,1156
2023-02-05T09:07:42.697Z,1188
2023-02-05T09:08:42.695Z,1220
2023-02-05T09:09:42.680Z,1248
2023-02-05T09:10:42.668Z,1288
2023-02-05T09:11:42.661Z,1316
2023-02-05T09:12:42.662Z,1344
2023-02-05T09:13:42.638Z,1376
2023-02-05T09:14:42.643Z,1396
2023-02-05T09:15:42.635Z,1420
2023-02-05T09:16:42.608Z,1440
2023-02-05T09:17:42.599Z,1468
2023-02-05T09:18:42.595Z,1496
2023-02-05T09:19:42.579Z,1532
2023-02-05T09:20:42.563Z,1568
2023-02-05T09:21:42.573Z,1600
2023-02-05T09:22:42.551Z,1632
2023-02-05T09:23:42.538Z,1660
2023-02-05T09:24:42.531Z,1680
2023-02-05T09:25:42.518Z,1692
2023-02-05T09:26:42.507Z,1712
2023-02-05T09:27:42.495Z,1704
2023-02-05T09:28:42.484Z,1696
2023-02-05T09:29:42.482Z,1676
2023-02-05T09:30:42.469Z,1652
2023-02-05T09:31:42.464Z,1640
2023-02-05T09:32:42.448Z,1592
2023-02-05T09:33:42.433Z,1512
2023-02-05T09:34:42.427Z,1464
2023-02-05T09:35:42.422Z,1448
2023-02-05T09:36:42.407Z,1416
2023-02-05T09:37:42.401Z,1372
2023-02-05T09:38:42.382Z,1376
2023-02-05T09:39:42.374Z,1388
2023-02-05T09:40:42.375Z,1440
2023-02-05T09:41:42.350Z,1508
2023-02-05T09:42:42.345Z,1520
2023-02-05T09:43:42.343Z,1528
2023-02-05T09:44:42.326Z,1540
2023-02-05T09:45:42.319Z,1580
2023-02-05T09:46:42.303Z,1620
2023-02-05T09:47:42.293Z,1640
2023-02-05T09:48:42.281Z,1664
2023-02-05T09:49:42.282Z,1692
2023-02-05T09:50:42.264Z,1752
2023-02-05T09:51:42.250Z,1828
2023-02-05T09:52:42.241Z,1908
2023-02-05T09:53:42.227Z,1940
2023-02-05T09:54:42.217Z,1920
2023-02-05T09:55:42.209Z,1812
2023-02-05T09:56:42.202Z,1616
2023-02-05T09:57:42.189Z,1484
2023-02-05T09:58:42.178Z,1464
2023-02-05T09:59:42.166Z,1564
2023-02-05T10:00:42.153Z,1732
2023-02-05T10:01:42.154Z,1888
2023-02-05T10:02:42.133Z,1632
2023-02-05T10:03:42.122Z,1724
2023-02-05T10:04:42.130Z,2060
2023-02-05T10:05:42.102Z,2192
2023-02-05T10:06:42.100Z,2156
2023-02-05T10:07:42.082Z,2264
2023-02-05T10:08:42.092Z,2368
2023-02-05T10:09:42.077Z,2376
2023-02-05T10:10:42.064Z,2428
2023-02-05T10:11:42.044Z,2492
2023-02-05T10:12:42.030Z,2548
2023-02-05T10:13:42.023Z,2592
2023-02-05T10:14:42.013Z,2660
2023-02-05T10:15:42.002Z,2768
2023-02-05T10:16:41.993Z,2884
2023-02-05T10:17:41.979Z,2948
2023-02-05T10:18:41.969Z,2992
2023-02-05T10:19:41.958Z,2980
2023-02-05T10:20:41.947Z,2896
2023-02-05T10:21:41.937Z,2832
2023-02-05T10:22:41.942Z,2836
2023-02-05T10:23:41.922Z,2848
2023-02-05T10:24:41.911Z,2812
2023-02-05T10:25:41.894Z,2716
2023-02-05T10:26:41.881Z,2548
2023-02-05T10:27:41.880Z,2452
2023-02-05T10:28:41.862Z,2332
2023-02-05T10:29:41.871Z,2268
2023-02-05T10:30:41.843Z,2196
2023-02-05T10:31:41.839Z,2192
2023-02-05T10:32:41.820Z,2228
2023-02-05T10:33:41.807Z,2244
2023-02-05T10:34:41.800Z,2268
2023-02-05T10:35:41.790Z,2380
2023-02-05T10:36:41.823Z,2560
2023-02-05T10:37:41.766Z,2764
2023-02-05T10:38:41.756Z,2980
2023-02-05T10:39:41.765Z,3164
2023-02-05T10:40:41.739Z,3296
2023-02-05T10:41:41.725Z,3448
2023-02-05T10:42:41.715Z,3436
2023-02-05T10:43:41.703Z,3264
2023-02-05T10:44:41.698Z,3076
2023-02-05T10:45:41.689Z,2944
2023-02-05T10:46:41.678Z,2916
2023-02-05T10:47:41.655Z,3016
2023-02-05T10:48:41.689Z,3172
2023-02-05T10:49:41.637Z,3340
2023-02-05T10:50:41.624Z,3576
2023-02-05T10:51:41.627Z,3780
2023-02-05T10:52:41.610Z,3916
2023-02-05T10:53:41.600Z,3972
2023-02-05T10:54:41.604Z,4124
2023-02-05T10:55:41.576Z,4112
2023-02-05T10:56:41.602Z,3936
2023-02-05T10:57:41.555Z,3688
2023-02-05T10:58:41.550Z,3392
2023-02-05T10:59:41.534Z,3180
2023-02-05T11:00:41.518Z,3292
2023-02-05T11:01:41.518Z,3456
2023-02-05T11:02:41.500Z,3672
2023-02-05T11:03:41.488Z,3700
2023-02-05T11:04:41.498Z,3984
2023-02-05T11:05:41.465Z,4620
2023-02-05T11:06:41.574Z,5120
2023-02-05T11:07:41.446Z,5916
2023-02-05T11:08:41.433Z,5824
2023-02-05T11:09:41.426Z,5532
2023-02-05T11:10:41.415Z,4580
2023-02-05T11:11:41.403Z,3752
2023-02-05T11:12:41.395Z,3244
2023-02-05T11:13:41.395Z,2912
2023-02-05T11:14:41.374Z,2740
2023-02-05T11:15:41.373Z,2612
2023-02-05T11:16:41.358Z,2548
2023-02-05T11:17:41.344Z,2632
2023-02-05T11:18:41.346Z,2652
2023-02-05T11:19:41.325Z,2656
2023-02-05T11:20:41.313Z,2584
2023-02-05T11:21:41.309Z,2700
2023-02-05T11:22:41.289Z,2864
2023-02-05T11:23:41.282Z,2960
2023-02-05T11:24:41.279Z,3100
2023-02-05T11:25:41.264Z,3092
2023-02-05T11:26:41.255Z,3068
2023-02-05T11:27:41.245Z,3132
2023-02-05T11:28:41.233Z,3340
2023-02-05T11:29:41.219Z,3704
2023-02-05T11:30:41.237Z,4168
2023-02-05T11:31:41.199Z,4572
2023-02-05T11:32:41.187Z,4244
2023-02-05T11:33:41.176Z,3880
2023-02-05T11:34:41.171Z,3788
2023-02-05T11:35:41.159Z,3364
2023-02-05T11:36:41.157Z,2724
2023-02-05T11:37:41.137Z,2304
2023-02-05T11:38:41.129Z,2048
2023-02-05T11:39:41.129Z,1860
2023-02-05T11:40:41.109Z,1728
2023-02-05T11:41:41.101Z,1768
2023-02-05T11:42:41.090Z,1692
2023-02-05T11:43:41.087Z,1592
2023-02-05T11:44:41.071Z,1540
2023-02-05T11:45:41.057Z,1584
2023-02-05T11:46:41.042Z,1460
2023-02-05T11:47:41.035Z,1532
2023-02-05T11:48:41.033Z,1792
2023-02-05T11:49:41.015Z,1832
2023-02-05T11:50:41.006Z,1600
2023-02-05T11:51:40.995Z,1440
2023-02-05T11:52:40.980Z,1512
2023-02-05T11:53:40.978Z,1660
2023-02-05T11:54:40.965Z,2020
2023-02-05T11:55:40.954Z,2552
2023-02-05T11:56:40.950Z,2896
2023-02-05T11:57:40.929Z,2628
2023-02-05T11:58:40.917Z,2424
2023-02-05T11:59:40.914Z,2220
2023-02-05T12:00:40.908Z,1748
2023-02-05T12:01:40.891Z,1384
2023-02-05T12:02:40.876Z,1248
2023-02-05T12:03:40.870Z,1212
2023-02-05T12:04:40.859Z,1080
2023-02-05T12:05:40.863Z,1028
2023-02-05T12:06:40.840Z,1116
2023-02-05T12:07:40.827Z,1268
2023-02-05T12:08:40.818Z,1364
2023-02-05T12:09:40.810Z,1340
2023-02-05T12:10:40.798Z,1336
2023-02-05T12:11:40.795Z,1500
2023-02-05T12:12:40.779Z,1824
2023-02-05T12:13:40.765Z,2048
2023-02-05T12:14:40.754Z,2164
2023-02-05T12:15:40.746Z,2084
2023-02-05T12:16:40.734Z,2112
2023-02-05T12:17:40.723Z,2316
2023-02-05T12:18:40.718Z,2432
2023-02-05T12:19:40.701Z,2316
2023-02-05T12:20:40.700Z,2056
2023-02-05T12:21:40.683Z,1864
2023-02-05T12:22:40.677Z,1776
2023-02-05T12:23:40.665Z,1812
2023-02-05T12:24:40.647Z,1792
2023-02-05T12:25:40.658Z,1764
2023-02-05T12:26:40.638Z,1644
2023-02-05T12:27:40.623Z,1476
2023-02-05T12:28:40.608Z,1308
2023-02-05T12:29:40.600Z,1132
2023-02-05T12:30:40.595Z,1012
2023-02-05T12:31:40.579Z,964
2023-02-05T12:32:40.573Z,1004
2023-02-05T12:33:40.556Z,1056
2023-02-05T12:34:40.546Z,1044
2023-02-05T12:35:40.538Z,1080
2023-02-05T12:36:40.527Z,1044
2023-02-05T12:37:40.524Z,1104
2023-02-05T12:38:40.553Z,1192
2023-02-05T12:39:40.494Z,1132
2023-02-05T12:40:48.089Z,1108
2023-02-05T12:41:40.490Z,1084
2023-02-05T12:42:40.482Z,1120
2023-02-05T12:43:40.453Z,1128
2023-02-05T12:44:40.446Z,1088
2023-02-05T12:45:40.435Z,932
2023-02-05T12:46:40.424Z,856
2023-02-05T12:47:40.411Z,828
2023-02-05T12:48:40.401Z,848
2023-02-05T12:49:40.399Z,844
2023-02-05T12:50:40.403Z,816
2023-02-05T12:51:40.374Z,764
2023-02-05T12:52:40.357Z,792
2023-02-05T12:53:40.360Z,896
2023-02-05T12:54:40.340Z,1032
2023-02-05T12:55:40.329Z,1152
2023-02-05T12:56:40.318Z,1120
2023-02-05T12:57:40.310Z,1128
2023-02-05T12:58:40.299Z,1176
2023-02-05T12:59:40.289Z,1156
2023-02-05T13:00:40.279Z,1052
2023-02-05T13:01:40.265Z,964
2023-02-05T13:02:40.258Z,904
2023-02-05T13:03:40.246Z,880
2023-02-05T13:04:40.239Z,904
2023-02-05T13:05:40.236Z,912
2023-02-05T13:06:40.213Z,880
2023-02-05T13:07:40.207Z,856
2023-02-05T13:08:40.194Z,840
2023-02-05T13:09:40.191Z,796
2023-02-05T13:10:40.175Z,772
2023-02-05T13:11:40.164Z,800
2023-02-05T13:12:40.161Z,880
2023-02-05T13:13:40.147Z,1004
2023-02-05T13:14:40.132Z,1084
2023-02-05T13:15:40.123Z,1152
2023-02-05T13:16:40.114Z,1192
2023-02-05T13:17:40.103Z,1200
2023-02-05T13:18:40.093Z,1192
2023-02-05T13:19:40.099Z,1104
2023-02-05T13:20:40.071Z,1028
2023-02-05T13:21:40.063Z,932
2023-02-05T13:22:40.052Z,848
2023-02-05T13:23:40.051Z,844
2023-02-05T13:24:40.028Z,872
2023-02-05T13:25:40.033Z,860
2023-02-05T13:26:40.014Z,736
2023-02-05T13:27:39.998Z,652
2023-02-05T13:28:39.990Z,660
2023-02-05T13:29:39.978Z,688
2023-02-05T13:30:39.967Z,688
2023-02-05T13:31:39.953Z,688
2023-02-05T13:32:39.948Z,696
2023-02-05T13:33:39.936Z,764
2023-02-05T13:34:39.925Z,860
2023-02-05T13:35:39.921Z,808
2023-02-05T13:36:39.922Z,708
2023-02-05T13:37:39.907Z,740
2023-02-05T13:38:39.882Z,880
2023-02-05T13:39:39.885Z,692
2023-02-05T13:40:39.867Z,656
2023-02-05T13:41:39.856Z,648
2023-02-05T13:42:39.846Z,716
2023-02-05T13:43:39.834Z,776
2023-02-05T13:44:39.822Z,828
2023-02-05T13:45:39.811Z,852
2023-02-05T13:46:39.806Z,912
2023-02-05T13:47:39.795Z,852
2023-02-05T13:48:39.782Z,728
2023-02-05T13:49:39.793Z,656
2023-02-05T13:50:39.757Z,652
2023-02-05T13:51:39.750Z,644
2023-02-05T13:52:39.738Z,580
2023-02-05T13:53:39.726Z,556